Time;durP1;ratioP1;P1;durP2;ratioP2;P2;SDS_P1;SDS_P2;PMS_P1;PMS_P2;Temp;Humidity;BMP_temperature;BMP_pressure;BME280_temperature;BME280_humidity;BME280_pressure;Samples;Min_cycle;Max_cycle;Signal;HPM_P1;HPM_P2
2021/04/11 00:00:23;;;;;;;7.80;5.20;;;5.20;99.90;;;;;;5015058;28;20188;-61
2021/04/11 00:02:49;;;;;;;10.23;6.03;;;5.20;99.90;;;;;;5015135;28;20215;-60
2021/04/11 00:05:17;;;;;;;10.40;6.65;;;5.30;99.90;;;;;;5014815;28;20225;-60
2021/04/11 00:07:43;;;;;;;14.38;6.80;;;5.40;99.90;;;;;;5014810;28;20181;-60
2021/04/11 00:10:14;;;;;;;10.50;6.80;;;5.30;99.90;;;;;;5014869;28;20202;-61
2021/04/11 00:12:40;;;;;;;8.70;5.80;;;5.50;99.90;;;;;;5014796;28;20186;-60
2021/04/11 00:15:08;;;;;;;12.53;7.27;;;5.50;99.90;;;;;;5014392;28;20216;-60
2021/04/11 00:17:34;;;;;;;12.75;6.88;;;5.40;99.90;;;;;;5014924;28;20737;-60
2021/04/11 00:19:59;;;;;;;14.20;6.57;;;5.50;99.90;;;;;;5014963;28;20210;-60
2021/04/11 00:22:25;;;;;;;12.57;7.10;;;5.50;99.90;;;;;;5014657;28;20254;-60
2021/04/11 00:24:50;;;;;;;9.00;7.40;;;5.60;99.90;;;;;;5014551;28;20184;-63
2021/04/11 00:27:16;;;;;;;13.53;7.17;;;5.60;99.90;;;;;;5030288;28;20280;-60
2021/04/11 00:29:42;;;;;;;9.63;7.30;;;5.70;99.90;;;;;;5014880;28;20176;-61
2021/04/11 00:32:08;;;;;;;15.40;8.17;;;5.60;99.90;;;;;;5014695;28;20287;-60
2021/04/11 00:34:33;;;;;;;10.63;7.50;;;5.60;99.90;;;;;;5014520;28;20456;-59
2021/04/11 00:36:59;;;;;;;15.33;9.73;;;5.70;99.90;;;;;;5014626;28;20209;-64
2021/04/11 00:39:25;;;;;;;16.07;9.00;;;5.80;99.90;;;;;;5014841;28;20247;-64
2021/04/11 00:41:56;;;;;;;13.20;7.60;;;5.90;99.90;;;;;;5014411;28;20229;-64
2021/04/11 00:44:22;;;;;;;15.00;8.48;;;5.80;99.90;;;;;;5029775;28;20263;-64
2021/04/11 00:46:56;;;;;;;10.70;8.00;;;5.90;99.90;;;;;;5014563;28;20515;-65
2021/04/11 00:49:44;;;;;;;14.05;9.30;;;6.00;99.90;;;;;;5014704;28;20172;-63
2021/04/11 00:52:13;;;;;;;18.17;9.50;;;6.00;99.90;;;;;;5014629;28;20272;-64
2021/04/11 00:54:39;;;;;;;23.13;12.38;;;5.90;99.90;;;;;;5029436;28;20234;-64
2021/04/11 00:57:07;;;;;;;17.67;11.23;;;6.00;99.90;;;;;;5029725;28;20260;-64
2021/04/11 00:59:32;;;;;;;15.43;9.75;;;6.00;99.90;;;;;;5030042;28;20298;-64
2021/04/11 01:01:58;;;;;;;17.63;11.50;;;6.10;99.90;;;;;;5014221;28;20264;-64
2021/04/11 01:04:24;;;;;;;17.70;10.43;;;6.20;99.90;;;;;;5014001;28;20241;-64
2021/04/11 01:06:53;;;;;;;17.00;10.77;;;6.20;99.90;;;;;;5014171;28;20633;-64
2021/04/11 01:09:25;;;;;;;20.73;12.43;;;6.20;99.90;;;;;;5014117;28;20189;-64
2021/04/11 01:11:54;;;;;;;15.18;10.30;;;6.20;99.90;;;;;;5014402;28;20576;-64
2021/04/11 01:14:20;;;;;;;18.85;11.38;;;6.20;99.90;;;;;;5013942;28;20258;-65
2021/04/11 01:16:46;;;;;;;23.27;11.07;;;6.30;99.90;;;;;;5014254;28;20186;-63
2021/04/11 01:19:25;;;;;;;18.40;11.18;;;6.30;99.90;;;;;;5014002;28;20178;-64
2021/04/11 01:22:03;;;;;;;19.80;12.55;;;6.20;99.90;;;;;;5029348;28;20237;-64
2021/04/11 01:24:49;;;;;;;20.25;12.88;;;6.30;99.90;;;;;;5013633;28;20185;-65
2021/04/11 01:27:20;;;;;;;18.98;11.80;;;6.40;99.90;;;;;;5029415;28;20190;-63
2021/04/11 01:29:47;;;;;;;22.20;12.15;;;6.30;99.90;;;;;;5013899;28;20219;-65
2021/04/11 01:32:14;;;;;;;19.02;12.57;;;6.40;99.90;;;;;;5029352;28;20185;-65
2021/04/11 01:34:41;;;;;;;17.95;11.40;;;6.30;99.90;;;;;;5013542;28;20602;-64
2021/04/11 01:37:08;;;;;;;20.17;14.32;;;6.40;99.90;;;;;;5013810;28;20181;-63
2021/04/11 01:39:37;;;;;;;22.75;12.77;;;6.40;99.90;;;;;;5013638;28;20249;-63
2021/04/11 01:42:05;;;;;;;20.17;12.30;;;6.30;99.90;;;;;;5013732;28;20298;-64
2021/04/11 01:44:34;;;;;;;21.10;12.68;;;6.40;99.90;;;;;;5013517;28;20283;-64
2021/04/11 01:47:00;;;;;;;25.65;12.98;;;6.40;99.90;;;;;;5013799;28;20263;-60
2021/04/11 01:49:27;;;;;;;19.10;12.03;;;6.50;99.90;;;;;;5017561;28;20324;-59
2021/04/11 01:51:59;;;;;;;23.55;15.40;;;6.50;99.90;;;;;;5017746;28;20451;-59
2021/04/11 01:54:28;;;;;;;21.58;14.63;;;6.50;99.90;;;;;;5017558;28;20650;-59
2021/04/11 01:56:54;;;;;;;22.27;13.45;;;6.50;99.90;;;;;;5018044;28;20223;-60
2021/04/11 01:59:28;;;;;;;20.47;13.87;;;6.50;99.90;;;;;;5017823;28;20208;-59
2021/04/11 02:01:54;;;;;;;19.80;12.30;;;6.50;99.90;;;;;;5017729;28;20903;-60
2021/04/11 02:04:21;;;;;;;24.77;14.20;;;6.70;99.90;;;;;;5017410;28;20594;-62
2021/04/11 02:06:53;;;;;;;20.13;12.15;;;6.70;99.90;;;;;;5017891;28;20192;-62
2021/04/11 02:09:29;;;;;;;23.90;14.18;;;6.70;99.90;;;;;;5017558;28;20570;-62
2021/04/11 02:11:55;;;;;;;20.73;14.48;;;6.70;99.90;;;;;;5017444;28;20181;-60
2021/04/11 02:14:21;;;;;;;22.95;14.57;;;6.80;99.90;;;;;;5017183;28;20193;-60
2021/04/11 02:16:47;;;;;;;24.15;15.80;;;6.80;99.90;;;;;;5017252;28;20291;-60
2021/04/11 02:19:18;;;;;;;22.30;13.40;;;6.90;99.90;;;;;;5017568;28;20227;-60
2021/04/11 02:21:47;;;;;;;23.83;14.85;;;6.90;99.90;;;;;;5017456;28;20176;-63
2021/04/11 02:24:14;;;;;;;26.38;15.55;;;6.90;99.90;;;;;;5032477;28;20247;-62
2021/04/11 02:26:41;;;;;;;23.55;15.25;;;6.80;99.90;;;;;;5017194;28;20210;-61
2021/04/11 02:29:12;;;;;;;21.33;13.75;;;6.80;99.90;;;;;;5017118;28;20189;-62
2021/04/11 02:31:38;;;;;;;23.17;14.40;;;6.90;99.90;;;;;;5017117;28;20185;-62
2021/04/11 02:34:09;;;;;;;23.20;14.80;;;7.00;99.90;;;;;;5016835;28;20189;-62
2021/04/11 02:36:42;;;;;;;26.48;14.02;;;7.10;99.90;;;;;;5016876;28;20217;-62
2021/04/11 02:39:13;;;;;;;21.67;15.45;;;7.20;99.90;;;;;;5016735;28;20290;-62
2021/04/11 02:41:40;;;;;;;19.60;13.95;;;7.20;99.90;;;;;;5017140;28;20181;-62
2021/04/11 02:44:06;;;;;;;20.85;14.82;;;7.20;99.90;;;;;;5016422;28;20196;-62
2021/04/11 02:46:34;;;;;;;22.60;15.48;;;7.20;99.90;;;;;;5016855;28;20209;-63
2021/04/11 02:49:00;;;;;;;27.02;17.75;;;7.30;99.90;;;;;;5016790;28;20180;-62
2021/04/11 02:51:29;;;;;;;23.97;16.30;;;7.20;99.90;;;;;;5016780;28;20182;-62
2021/04/11 02:53:57;;;;;;;23.33;16.45;;;7.10;99.90;;;;;;5016389;28;20213;-62
2021/04/11 02:56:24;;;;;;;24.55;17.10;;;7.20;99.90;;;;;;5016463;28;20267;-62
2021/04/11 02:58:49;;;;;;;29.05;17.33;;;7.10;99.90;;;;;;5015762;28;20269;-62
2021/04/11 03:01:19;;;;;;;25.47;16.80;;;7.10;99.90;;;;;;5015999;28;20293;-62
2021/04/11 03:03:46;;;;;;;28.73;16.63;;;7.10;99.90;;;;;;5016207;28;20248;-62
2021/04/11 03:06:20;;;;;;;27.25;16.45;;;7.30;99.90;;;;;;5016658;28;20224;-62
2021/04/11 03:08:50;;;;;;;27.90;17.17;;;7.30;99.90;;;;;;5015239;28;20190;-62
2021/04/11 03:11:30;;;;;;;27.77;18.50;;;7.30;99.90;;;;;;5016507;28;20638;-63
2021/04/11 03:13:57;;;;;;;28.92;17.90;;;7.40;99.90;;;;;;5016085;28;20197;-63
2021/04/11 03:16:24;;;;;;;29.05;18.08;;;7.50;99.90;;;;;;5016396;28;20210;-63
2021/04/11 03:18:53;;;;;;;27.58;17.30;;;7.60;99.90;;;;;;5016159;28;20182;-63
2021/04/11 03:21:19;;;;;;;30.23;20.45;;;7.70;99.90;;;;;;5015980;28;20598;-62
2021/04/11 03:23:45;;;;;;;30.60;19.50;;;7.70;99.90;;;;;;5015849;28;20215;-63
2021/04/11 03:26:24;;;;;;;27.03;18.07;;;7.70;99.90;;;;;;5016018;28;20190;-62
2021/04/11 03:28:58;;;;;;;26.15;18.20;;;7.70;99.90;;;;;;5016136;28;20175;-62
2021/04/11 03:31:33;;;;;;;30.25;18.85;;;7.80;99.90;;;;;;5016035;28;20181;-62
2021/04/11 03:34:03;;;;;;;28.42;19.42;;;7.70;99.90;;;;;;5015697;28;20177;-62
2021/04/11 03:36:29;;;;;;;31.77;20.35;;;7.80;99.90;;;;;;5015718;28;20210;-63
2021/04/11 03:38:57;;;;;;;30.17;19.75;;;7.90;99.90;;;;;;5016051;28;20262;-63
2021/04/11 03:41:26;;;;;;;28.67;19.70;;;8.10;99.90;;;;;;5031243;28;20246;-62
2021/04/11 03:43:55;;;;;;;34.08;21.23;;;8.00;99.90;;;;;;5015387;28;20181;-62
2021/04/11 03:46:41;;;;;;;32.10;20.30;;;7.90;99.90;;;;;;5015676;28;20549;-62
2021/04/11 03:49:33;;;;;;;35.22;21.35;;;7.80;99.90;;;;;;5015786;28;20181;-62
2021/04/11 03:52:04;;;;;;;32.88;20.98;;;7.90;99.90;;;;;;5015454;28;20557;-62
2021/04/11 03:54:35;;;;;;;36.45;20.92;;;7.90;99.90;;;;;;5015166;28;20604;-62
2021/04/11 03:57:10;;;;;;;36.92;23.20;;;7.80;99.90;;;;;;5015456;28;20179;-62
2021/04/11 03:59:41;;;;;;;37.25;23.10;;;7.70;99.90;;;;;;5015507;28;20653;-62
2021/04/11 04:02:09;;;;;;;30.10;20.25;;;7.70;99.90;;;;;;5015402;28;20186;-62
2021/04/11 04:04:38;;;;;;;34.17;21.02;;;7.70;99.90;;;;;;5015047;28;20209;-62
2021/04/11 04:07:16;;;;;;;35.58;21.45;;;7.80;99.90;;;;;;5030912;28;20179;-62
2021/04/11 04:09:48;;;;;;;35.10;21.25;;;7.80;99.90;;;;;;5015183;28;20179;-62
2021/04/11 04:12:29;;;;;;;37.10;21.70;;;7.90;99.90;;;;;;5030335;28;20332;-62
2021/04/11 04:15:16;;;;;;;34.75;20.08;;;8.00;99.90;;;;;;5014812;28;20664;-62
2021/04/11 04:18:00;;;;;;;31.95;20.00;;;8.10;99.90;;;;;;5015128;28;20265;-62
2021/04/11 04:20:31;;;;;;;34.03;21.20;;;8.10;99.90;;;;;;5014878;28;20170;-62
2021/04/11 04:23:28;;;;;;;33.80;20.33;;;8.10;99.90;;;;;;5015017;28;20505;-62
2021/04/11 04:26:24;;;;;;;31.75;20.35;;;8.10;99.90;;;;;;5014882;28;20179;-62
2021/04/11 04:29:13;;;;;;;37.28;22.08;;;8.20;99.90;;;;;;5014830;28;20189;-62
2021/04/11 04:31:57;;;;;;;38.47;22.90;;;8.20;99.90;;;;;;5000440;28;20198;-62
2021/04/11 04:34:38;;;;;;;34.28;20.67;;;8.00;99.90;;;;;;5014520;28;20174;-62
2021/04/11 04:37:17;;;;;;;34.30;21.35;;;8.00;99.90;;;;;;5014914;28;20192;-62
2021/04/11 04:39:50;;;;;;;36.80;21.45;;;8.00;99.90;;;;;;5014679;28;20681;-62
2021/04/11 04:42:48;;;;;;;36.28;21.17;;;8.00;99.90;;;;;;5014739;28;20178;-62
2021/04/11 04:45:25;;;;;;;34.05;20.15;;;8.10;99.90;;;;;;5013988;28;20203;-62
2021/04/11 04:47:53;;;;;;;29.30;19.65;;;8.10;99.90;;;;;;5030056;28;20239;-63
2021/04/11 04:50:30;;;;;;;31.55;20.70;;;8.10;99.90;;;;;;5014530;28;20213;-63
2021/04/11 04:53:26;;;;;;;34.65;21.70;;;8.20;99.90;;;;;;5014503;28;20185;-63
2021/04/11 04:55:55;;;;;;;32.22;20.02;;;8.20;99.90;;;;;;5014475;28;20682;-63
2021/04/11 04:58:55;;;;;;;30.58;20.55;;;8.20;99.90;;;;;;5014472;28;20566;-63
2021/04/11 05:01:30;;;;;;;29.13;19.95;;;8.30;99.90;;;;;;4995043;28;20337;-63
2021/04/11 05:04:01;;;;;;;32.40;21.70;;;8.10;99.90;;;;;;5014220;28;20519;-63
2021/04/11 05:06:30;;;;;;;31.10;20.65;;;8.10;99.90;;;;;;5014362;28;20174;-63
2021/04/11 05:09:20;;;;;;;34.28;21.40;;;8.10;99.90;;;;;;5014322;28;20189;-63
2021/04/11 05:11:53;;;;;;;32.85;20.88;;;8.20;99.90;;;;;;5029800;28;20644;-60
2021/04/11 05:14:23;;;;;;;30.67;20.50;;;8.20;99.90;;;;;;5029538;28;20192;-60
2021/04/11 05:17:00;;;;;;;35.75;23.58;;;8.40;99.90;;;;;;5013182;28;20217;-60
2021/04/11 05:19:35;;;;;;;39.05;23.80;;;8.30;99.90;;;;;;5014170;28;20192;-64
2021/04/11 05:22:27;;;;;;;38.40;23.30;;;8.40;99.90;;;;;;5029251;28;20194;-64
2021/04/11 05:25:01;;;;;;;31.65;22.92;;;8.40;99.90;;;;;;4985597;28;20216;-64
2021/04/11 05:28:08;;;;;;;30.73;21.15;;;8.40;99.90;;;;;;5013947;28;20184;-64
2021/04/11 05:30:59;;;;;;;37.70;22.45;;;8.50;99.90;;;;;;5029296;28;20182;-63
2021/04/11 05:33:25;;;;;;;35.63;20.95;;;8.50;99.90;;;;;;5013689;28;20178;-64
2021/04/11 05:36:00;;;;;;;35.42;22.08;;;8.60;99.90;;;;;;5029129;28;20241;-64
2021/04/11 05:38:42;;;;;;;29.85;20.30;;;8.80;99.90;;;;;;5013743;28;20226;-64
2021/04/11 05:41:21;;;;;;;39.38;24.10;;;8.70;99.90;;;;;;5013718;28;20260;-64
2021/04/11 05:43:56;;;;;;;37.28;22.70;;;8.70;99.90;;;;;;5013326;28;20177;-64
2021/04/11 05:46:38;;;;;;;37.53;23.42;;;8.80;99.90;;;;;;5029243;28;20526;-64
2021/04/11 05:49:12;;;;;;;37.25;22.45;;;8.80;99.90;;;;;;5029035;28;20189;-64
2021/04/11 05:51:51;;;;;;;33.10;22.05;;;8.70;99.90;;;;;;5013648;28;20300;-64
2021/04/11 05:54:19;;;;;;;36.03;23.52;;;8.80;99.90;;;;;;5013549;28;20185;-64
2021/04/11 05:57:05;;;;;;;35.05;23.25;;;8.90;99.90;;;;;;5029370;28;20217;-65
2021/04/11 05:59:49;;;;;;;38.30;23.35;;;8.90;99.90;;;;;;5014069;28;20189;-65
2021/04/11 06:02:47;;;;;;;34.10;22.50;;;9.00;99.90;;;;;;5029403;28;20243;-64
2021/04/11 06:05:24;;;;;;;35.78;23.58;;;9.00;99.90;;;;;;5013620;28;20219;-65
2021/04/11 06:08:09;;;;;;;36.88;24.15;;;8.70;99.90;;;;;;5014193;28;20571;-65
2021/04/11 06:10:38;;;;;;;33.17;23.65;;;8.80;99.90;;;;;;5029704;28;20569;-64
2021/04/11 06:13:14;;;;;;;32.67;22.92;;;8.80;99.90;;;;;;5013883;28;20217;-64
2021/04/11 06:15:43;;;;;;;38.15;25.20;;;8.90;99.90;;;;;;5013493;28;20221;-60
2021/04/11 06:18:10;;;;;;;38.05;23.35;;;9.00;99.90;;;;;;5012716;28;20205;-61
2021/04/11 06:20:37;;;;;;;36.97;23.48;;;9.00;99.90;;;;;;5014371;28;20189;-62
2021/04/11 06:23:26;;;;;;;37.53;22.73;;;9.20;99.90;;;;;;5014984;28;20689;-62
2021/04/11 06:26:13;;;;;;;33.00;23.63;;;9.00;99.90;;;;;;5012851;28;20190;-62
2021/04/11 06:28:51;;;;;;;40.53;26.00;;;8.90;99.90;;;;;;5017141;28;20243;-59
2021/04/11 06:31:21;;;;;;;40.45;26.20;;;9.10;99.90;;;;;;5012807;28;20196;-60
2021/04/11 06:33:51;;;;;;;33.55;22.60;;;9.30;99.90;;;;;;5012390;28;20276;-59
2021/04/11 06:36:19;;;;;;;34.92;22.70;;;9.30;99.90;;;;;;5017690;28;20646;-61
2021/04/11 06:38:56;;;;;;;38.10;23.75;;;9.30;99.90;;;;;;5018450;28;20595;-62
2021/04/11 06:41:47;;;;;;;33.30;22.20;;;9.30;99.90;;;;;;5020594;28;20198;-62
2021/04/11 06:44:37;;;;;;;39.88;24.92;;;9.20;99.90;;;;;;5019343;28;20182;-65
2021/04/11 06:47:33;;;;;;;38.17;24.98;;;9.10;99.90;;;;;;5019967;28;20178;-60
2021/04/11 06:50:36;;;;;;;36.30;23.73;;;9.30;99.90;;;;;;5019687;28;20245;-60
2021/04/11 06:53:26;;;;;;;34.35;22.48;;;9.20;99.90;;;;;;5020312;28;20237;-60
2021/04/11 06:55:58;;;;;;;38.78;24.75;;;9.30;99.90;;;;;;5021526;28;20254;-60
2021/04/11 06:59:01;;;;;;;36.15;24.13;;;9.30;99.90;;;;;;5021661;28;20174;-60
2021/04/11 07:01:32;;;;;;;35.17;23.52;;;9.40;99.90;;;;;;5022399;28;20178;-60
2021/04/11 07:04:29;;;;;;;35.22;23.48;;;9.50;99.90;;;;;;5022093;28;20178;-60
2021/04/11 07:07:20;;;;;;;35.47;23.85;;;9.60;99.90;;;;;;5022970;28;20509;-60
2021/04/11 07:09:59;;;;;;;36.63;23.30;;;9.80;99.90;;;;;;5022753;28;20639;-60
2021/04/11 07:13:02;;;;;;;37.10;23.52;;;9.80;99.90;;;;;;5027871;28;20592;-61
2021/04/11 07:15:49;;;;;;;36.08;23.08;;;9.80;99.90;;;;;;5030236;28;20296;-61
2021/04/11 07:18:52;;;;;;;35.17;22.48;;;9.70;99.90;;;;;;5030549;28;20166;-62
2021/04/11 07:21:20;;;;;;;34.67;22.63;;;9.80;99.90;;;;;;5027486;28;20175;-63
2021/04/11 07:24:12;;;;;;;37.33;22.63;;;9.90;99.90;;;;;;5026731;28;20623;-63
2021/04/11 07:27:07;;;;;;;31.25;22.38;;;10.00;99.90;;;;;;5029646;28;20196;-63
2021/04/11 07:30:09;;;;;;;32.95;22.67;;;9.90;99.90;;;;;;5028321;28;20202;-63
2021/04/11 07:32:41;;;;;;;31.70;21.50;;;10.00;99.90;;;;;;4959730;28;20192;-63
2021/04/11 07:35:48;;;;;;;38.88;24.60;;;10.00;99.90;;;;;;5025311;28;20206;-60
2021/04/11 07:38:26;;;;;;;36.25;23.45;;;10.00;99.90;;;;;;5015596;28;20241;-60
2021/04/11 07:41:05;;;;;;;34.25;22.35;;;10.00;99.90;;;;;;5020237;28;20185;-59
2021/04/11 07:43:46;;;;;;;33.22;22.38;;;10.00;99.90;;;;;;5016711;28;20512;-60
2021/04/11 07:46:27;;;;;;;32.35;22.67;;;10.00;99.90;;;;;;5017148;28;20202;-59
2021/04/11 07:49:14;;;;;;;32.78;21.77;;;10.20;99.90;;;;;;5018230;28;20182;-59
2021/04/11 07:52:07;;;;;;;27.23;20.92;;;10.10;99.90;;;;;;5017372;28;20202;-59
2021/04/11 07:54:41;;;;;;;36.78;24.33;;;10.20;99.90;;;;;;5017909;28;20179;-60
2021/04/11 07:57:10;;;;;;;32.55;22.13;;;10.40;99.90;;;;;;5017586;28;20185;-60
2021/04/11 08:00:00;;;;;;;31.38;21.45;;;10.40;99.90;;;;;;5017350;28;20204;-59
2021/04/11 08:02:43;;;;;;;35.85;23.17;;;10.40;99.90;;;;;;5016000;28;20222;-59
2021/04/11 08:05:20;;;;;;;31.00;20.50;;;10.50;99.90;;;;;;5015245;28;20206;-60
2021/04/11 08:08:34;;;;;;;31.90;22.15;;;10.70;99.90;;;;;;5016988;28;20178;-59
2021/04/11 08:11:41;;;;;;;31.73;21.25;;;10.90;99.90;;;;;;5016537;28;20261;-60
2021/04/11 08:14:45;;;;;;;31.27;21.05;;;11.10;99.90;;;;;;4987195;28;20205;-60
2021/04/11 08:17:31;;;;;;;27.35;20.58;;;11.30;99.90;;;;;;5015542;28;20194;-62
2021/04/11 08:20:24;;;;;;;30.85;20.70;;;11.40;99.90;;;;;;5015259;28;20658;-61
2021/04/11 08:23:11;;;;;;;27.75;19.55;;;11.50;99.90;;;;;;5015354;28;20396;-61
2021/04/11 08:26:22;;;;;;;26.38;19.35;;;11.80;99.90;;;;;;5015654;28;20174;-61
2021/04/11 08:29:06;;;;;;;27.73;19.38;;;11.80;99.90;;;;;;5015188;28;20511;-63
2021/04/11 08:31:59;;;;;;;30.08;19.90;;;12.10;99.90;;;;;;5015238;28;20182;-62
2021/04/11 08:35:02;;;;;;;28.60;18.95;;;12.50;99.90;;;;;;5015146;28;20617;-61
2021/04/11 08:37:51;;;;;;;25.70;18.42;;;12.50;99.90;;;;;;5015466;28;20551;-62
2021/04/11 08:40:26;;;;;;;30.60;20.85;;;12.30;99.90;;;;;;5015410;28;20226;-62
2021/04/11 08:42:57;;;;;;;22.80;17.10;;;12.60;99.90;;;;;;5015253;28;20188;-61
2021/04/11 08:45:42;;;;;;;22.33;18.02;;;12.30;99.90;;;;;;5014682;28;20188;-64
2021/04/11 08:48:26;;;;;;;24.73;18.02;;;12.20;99.90;;;;;;5014959;28;20181;-64
2021/04/11 08:51:28;;;;;;;24.50;16.55;;;12.30;99.90;;;;;;5014876;28;20213;-64
2021/04/11 08:53:56;;;;;;;22.02;15.73;;;12.60;99.90;;;;;;5015718;28;20167;-62
2021/04/11 08:56:44;;;;;;;25.85;16.58;;;12.70;99.90;;;;;;5014422;28;20227;-62
2021/04/11 08:59:30;;;;;;;19.60;15.73;;;13.10;99.90;;;;;;5014650;28;20184;-62
2021/04/11 09:01:55;;;;;;;18.55;14.82;;;12.90;99.90;;;;;;5014971;28;20192;-62
2021/04/11 09:04:33;;;;;;;21.83;16.93;;;12.80;99.90;;;;;;5014370;28;20227;-63
2021/04/11 09:07:35;;;;;;;20.13;15.52;;;13.20;99.90;;;;;;5014698;28;20234;-63
2021/04/11 09:10:22;;;;;;;18.90;15.35;;;13.80;99.90;;;;;;5013843;28;20190;-63
2021/04/11 09:13:13;;;;;;;16.20;12.30;;;13.90;1.00;;;;;;5014359;28;20179;-65
2021/04/11 09:16:02;;;;;;;18.42;13.20;;;14.70;1.00;;;;;;5014229;28;20236;-64
2021/04/11 09:18:33;;;;;;;15.70;11.93;;;15.40;1.00;;;;;;5014307;28;20251;-61
2021/04/11 09:21:24;;;;;;;13.43;11.60;;;15.60;1.00;;;;;;5014532;28;20182;-65
2021/04/11 09:23:53;;;;;;;16.02;10.93;;;15.00;1.00;;;;;;4991057;28;20280;-62
2021/04/11 09:26:49;;;;;;;11.43;8.85;;;14.40;99.90;;;;;;5013812;28;20176;-62
2021/04/11 09:29:39;;;;;;;10.77;8.85;;;14.10;99.90;;;;;;5013850;28;20612;-65
2021/04/11 09:32:54;;;;;;;9.30;8.25;;;14.10;1.00;;;;;;5014061;28;20192;-63
2021/04/11 09:35:26;;;;;;;8.75;7.25;;;14.10;1.00;;;;;;5008597;28;20665;-62
2021/04/11 09:38:20;;;;;;;9.02;7.35;;;14.40;99.90;;;;;;5016830;28;20272;-67
2021/04/11 09:41:31;;;;;;;9.32;7.22;;;14.50;99.90;;;;;;5029177;28;20199;-65
2021/04/11 09:44:34;;;;;;;7.93;7.13;;;14.40;64.90;;;;;;4994088;28;20184;-64
2021/04/11 09:47:11;;;;;;;9.32;7.85;;;14.30;99.90;;;;;;5003192;28;20291;-65
2021/04/11 09:50:07;;;;;;;10.10;7.13;;;13.50;99.90;;;;;;5013910;28;20187;-63
2021/04/11 09:52:45;;;;;;;7.45;6.30;;;13.00;1.00;;;;;;5013610;28;20186;-63
2021/04/11 09:55:42;;;;;;;7.38;6.63;;;12.80;1.00;;;;;;5013568;28;20218;-64
2021/04/11 09:58:17;;;;;;;9.00;6.80;;;12.50;1.00;;;;;;5013858;28;20528;-64
2021/04/11 10:01:00;;;;;;;10.00;8.63;;;12.40;1.00;;;;;;5013549;28;20261;-64
2021/04/11 10:03:40;;;;;;;10.95;9.02;;;12.50;9.50;;;;;;5013450;28;20191;-64
2021/04/11 10:06:17;;;;;;;12.25;10.27;;;12.50;8.40;;;;;;5013631;28;20265;-67
2021/04/11 10:08:53;;;;;;;13.18;11.82;;;12.60;35.70;;;;;;5014480;28;20184;-66
2021/04/11 10:11:48;;;;;;;13.90;11.45;;;12.80;1.00;;;;;;5017581;28;20176;-67
2021/04/11 10:14:32;;;;;;;12.18;10.48;;;13.00;1.00;;;;;;5011031;28;20252;-65
2021/04/11 10:17:19;;;;;;;13.88;11.43;;;13.30;1.00;;;;;;5035759;28;20286;-65
2021/04/11 10:19:58;;;;;;;12.90;10.85;;;12.70;99.90;;;;;;5035647;28;20171;-64
2021/04/11 10:23:00;;;;;;;12.00;10.48;;;12.60;1.00;;;;;;5037322;28;20175;-65
2021/04/11 10:25:31;;;;;;;14.60;11.65;;;12.40;1.00;;;;;;5036678;28;20619;-64
2021/04/11 10:28:19;;;;;;;14.40;12.90;;;12.80;1.00;;;;;;5035663;28;20645;-61
2021/04/11 10:30:52;;;;;;;14.27;12.43;;;13.60;99.90;;;;;;5037164;28;20211;-61
2021/04/11 10:33:51;;;;;;;14.02;11.57;;;14.40;99.90;;;;;;5036544;28;20207;-66
2021/04/11 10:36:34;;;;;;;11.25;10.07;;;15.00;99.90;;;;;;4968263;28;20326;-66
2021/04/11 10:39:16;;;;;;;9.55;8.60;;;15.00;99.90;;;;;;5026271;28;20203;-68
2021/04/11 10:42:23;;;;;;;10.02;8.68;;;14.20;1.00;;;;;;5015959;28;20251;-67
2021/04/11 10:45:11;;;;;;;10.40;9.18;;;12.90;1.00;;;;;;5016168;28;20225;-67
2021/04/11 10:47:52;;;;;;;11.00;9.77;;;12.60;1.00;;;;;;5007278;28;20178;-67
2021/04/11 10:50:33;;;;;;;12.65;10.02;;;12.50;1.00;;;;;;5016695;28;20187;-67
2021/04/11 10:53:14;;;;;;;14.05;11.63;;;12.30;1.00;;;;;;5016687;28;20186;-66
2021/04/11 10:55:49;;;;;;;15.07;12.50;;;11.80;99.90;;;;;;5016204;28;20218;-64
2021/04/11 10:58:52;;;;;;;16.10;12.48;;;11.50;99.90;;;;;;5006970;28;20186;-67
2021/04/11 11:01:48;;;;;;;17.05;13.60;;;11.50;99.90;;;;;;5016222;28;20535;-66
2021/04/11 11:04:42;;;;;;;17.17;13.38;;;11.30;99.90;;;;;;5016141;28;20240;-67
2021/04/11 11:07:38;;;;;;;18.52;13.90;;;11.20;99.90;;;;;;5015306;28;20190;-65
2021/04/11 11:10:41;;;;;;;13.40;11.50;;;11.00;99.90;;;;;;4981305;28;20198;-66
2021/04/11 11:13:21;;;;;;;15.73;12.00;;;11.00;99.90;;;;;;5014846;28;20189;-67
2021/04/11 11:16:12;;;;;;;15.23;11.50;;;10.80;99.90;;;;;;5016258;28;20210;-63
2021/04/11 11:19:06;;;;;;;17.95;13.15;;;10.30;99.90;;;;;;5015239;28;20269;-64
2021/04/11 11:22:11;;;;;;;13.57;11.18;;;10.30;1.00;;;;;;5014988;28;20209;-60
2021/04/11 11:25:01;;;;;;;17.08;12.48;;;10.60;1.00;;;;;;5012876;28;20217;-59
2021/04/11 11:27:57;;;;;;;15.52;12.10;;;10.50;99.90;;;;;;5015839;28;20258;-60
2021/04/11 11:30:55;;;;;;;16.17;12.05;;;10.30;99.90;;;;;;5015815;28;20541;-60
2021/04/11 11:33:34;;;;;;;16.63;12.05;;;10.30;1.00;;;;;;5015704;28;20189;-61
2021/04/11 11:36:24;;;;;;;17.65;13.25;;;10.10;99.90;;;;;;5015689;28;20212;-66
2021/04/11 11:39:37;;;;;;;19.60;13.43;;;10.00;1.00;;;;;;5015996;28;20499;-64
2021/04/11 11:42:18;;;;;;;20.70;14.70;;;9.60;1.00;;;;;;4997706;28;20692;-63
2021/04/11 11:45:08;;;;;;;23.45;14.93;;;9.40;1.00;;;;;;5015763;28;20213;-65
2021/04/11 11:47:54;;;;;;;24.80;16.90;;;9.00;1.00;;;;;;5015728;28;20177;-65
2021/04/11 11:50:30;;;;;;;27.10;17.65;;;9.20;1.00;;;;;;5015613;28;20174;-64
2021/04/11 11:53:04;;;;;;;20.42;14.55;;;9.20;1.00;;;;;;5015466;28;20215;-64
2021/04/11 11:55:41;;;;;;;18.63;13.40;;;9.20;1.00;;;;;;5014819;28;20213;-64
2021/04/11 11:58:24;;;;;;;16.85;12.35;;;9.10;1.00;;;;;;5015557;28;20186;-66
2021/04/11 12:00:58;;;;;;;18.42;12.27;;;9.00;1.00;;;;;;5015741;28;20276;-66
2021/04/11 12:03:33;;;;;;;16.05;10.75;;;8.90;1.00;;;;;;5016458;28;20227;-66
2021/04/11 12:06:08;;;;;;;10.68;8.15;;;8.70;1.00;;;;;;5014955;28;20243;-66
2021/04/11 12:09:00;;;;;;;13.00;7.60;;;8.80;1.00;;;;;;5015196;28;20189;-62
2021/04/11 12:11:32;;;;;;;8.02;6.82;;;8.70;1.00;;;;;;5015795;28;20498;-61
2021/04/11 12:14:45;;;;;;;8.32;6.43;;;8.90;1.00;;;;;;5015416;28;20178;-61
2021/04/11 12:17:22;;;;;;;7.28;5.80;;;9.30;1.00;;;;;;4984829;28;20375;-62
2021/04/11 12:19:59;;;;;;;6.22;5.50;;;9.40;99.90;;;;;;5015167;28;20178;-64
2021/04/11 12:22:43;;;;;;;6.28;4.72;;;9.30;99.90;;;;;;5026913;28;20317;-63
2021/04/11 12:25:29;;;;;;;7.10;5.03;;;8.90;99.90;;;;;;5014204;28;20183;-64
2021/04/11 12:27:55;;;;;;;7.15;4.78;;;9.00;1.00;;;;;;5016546;28;20189;-66
2021/04/11 12:30:35;;;;;;;4.95;4.32;;;9.10;1.00;;;;;;5015029;28;20645;-65
2021/04/11 12:33:26;;;;;;;5.53;4.97;;;8.90;1.00;;;;;;5014632;28;20623;-67
2021/04/11 12:36:11;;;;;;;4.22;3.83;;;8.70;1.00;;;;;;5014220;28;20680;-67
2021/04/11 12:38:41;;;;;;;4.40;4.00;;;8.30;1.00;;;;;;5014886;28;20232;-67
2021/04/11 12:41:17;;;;;;;3.97;3.58;;;8.40;1.00;;;;;;5011121;28;20197;-65
2021/04/11 12:44:03;;;;;;;3.75;3.45;;;8.30;1.00;;;;;;5014447;28;20203;-65
2021/04/11 12:46:55;;;;;;;4.28;3.65;;;8.40;1.00;;;;;;4996622;28;20201;-66
2021/04/11 12:49:40;;;;;;;3.88;3.20;;;8.60;1.00;;;;;;5014155;28;20213;-65
2021/04/11 12:52:33;;;;;;;4.10;3.70;;;8.70;99.90;;;;;;5014609;28;20185;-64
2021/04/11 12:55:04;;;;;;;3.42;3.13;;;8.40;99.90;;;;;;5013916;28;20187;-65
2021/04/11 12:57:36;;;;;;;4.10;3.45;;;8.30;99.90;;;;;;5014436;28;20173;-66
2021/04/11 13:00:13;;;;;;;3.78;3.30;;;7.90;1.00;;;;;;5027553;28;20273;-64
2021/04/11 13:02:43;;;;;;;8.35;3.40;;;7.60;1.00;;;;;;5010418;28;20181;-63
2021/04/11 13:05:20;;;;;;;3.95;3.35;;;7.70;1.00;;;;;;5014872;28;20253;-64
2021/04/11 13:08:05;;;;;;;3.05;2.72;;;7.80;1.00;;;;;;5014040;28;20203;-64
2021/04/11 13:10:51;;;;;;;4.25;2.97;;;7.70;1.00;;;;;;5013355;28;20642;-63
2021/04/11 13:13:29;;;;;;;5.53;2.90;;;7.50;1.00;;;;;;5012350;28;20193;-63
2021/04/11 13:16:14;;;;;;;3.85;2.72;;;7.50;1.00;;;;;;5010245;28;20217;-66
2021/04/11 13:19:06;;;;;;;3.40;3.10;;;7.70;1.00;;;;;;5009939;28;20194;-67
2021/04/11 13:21:55;;;;;;;4.45;2.80;;;7.70;1.00;;;;;;5008962;28;20224;-67
2021/04/11 13:24:56;;;;;;;5.72;2.33;;;7.70;1.00;;;;;;5007231;28;20182;-69
2021/04/11 13:27:30;;;;;;;3.40;2.80;;;7.70;1.00;;;;;;5014531;28;20177;-69
2021/04/11 13:30:45;;;;;;;2.85;2.58;;;7.80;1.00;;;;;;5029548;28;20386;-65
2021/04/11 13:33:27;;;;;;;3.60;2.58;;;7.50;1.00;;;;;;4953982;29;20187;-66
2021/04/11 13:35:59;;;;;;;2.33;2.00;;;7.50;1.00;;;;;;4954458;29;20210;-66
2021/04/11 13:38:30;;;;;;;5.05;2.13;;;7.60;99.90;;;;;;4995895;28;20225;-67
2021/04/11 13:41:32;;;;;;;2.38;2.17;;;7.70;99.90;;;;;;5014461;28;20185;-67
2021/04/11 13:44:18;;;;;;;2.83;2.40;;;7.80;99.90;;;;;;5011151;28;20519;-64